createdAt,value
2018-08-30T00:00:43.663Z,14.00
2018-08-30T00:03:11.912Z,14.00
2018-08-30T00:05:39.982Z,14.00
2018-08-30T00:08:07.610Z,14.00
2018-08-30T00:10:35.285Z,14.00
2018-08-30T00:13:02.876Z,14.00
2018-08-30T00:15:30.533Z,14.00
2018-08-30T00:17:58.488Z,14.00
2018-08-30T00:20:26.107Z,14.00
2018-08-30T00:22:53.708Z,14.00
2018-08-30T00:25:21.338Z,14.00
2018-08-30T00:27:49.044Z,14.00
2018-08-30T00:30:16.693Z,14.00
2018-08-30T00:32:44.423Z,14.10
2018-08-30T00:35:12.058Z,14.10
2018-08-30T00:37:39.854Z,14.10
2018-08-30T00:40:07.604Z,14.10
2018-08-30T00:42:35.407Z,14.10
2018-08-30T00:45:03.091Z,14.10
2018-08-30T00:47:30.810Z,14.10
2018-08-30T00:49:58.462Z,14.10
2018-08-30T00:52:26.097Z,14.10
2018-08-30T00:54:53.736Z,14.10
2018-08-30T00:57:21.330Z,14.10
2018-08-30T00:59:48.975Z,14.10
2018-08-30T01:02:16.577Z,14.10
2018-08-30T01:04:44.267Z,14.20
2018-08-30T01:07:12.224Z,14.20
2018-08-30T01:09:39.889Z,14.20
2018-08-30T01:12:07.501Z,14.20
2018-08-30T01:14:35.158Z,14.20
2018-08-30T01:17:02.768Z,14.20
2018-08-30T01:19:30.631Z,14.30
2018-08-30T01:21:58.349Z,14.30
2018-08-30T01:24:26.059Z,14.20
2018-08-30T01:26:53.820Z,14.30
2018-08-30T01:29:21.479Z,14.30
2018-08-30T01:31:49.120Z,14.20
2018-08-30T01:34:16.741Z,14.30
2018-08-30T01:36:44.681Z,14.30
2018-08-30T01:39:12.329Z,14.30
2018-08-30T01:41:41.640Z,14.30
2018-08-30T01:44:09.707Z,14.30
2018-08-30T01:46:37.371Z,14.30
2018-08-30T01:49:05.033Z,14.30
2018-08-30T01:51:32.660Z,14.30
2018-08-30T01:54:00.301Z,14.40
2018-08-30T01:56:27.937Z,14.30
2018-08-30T01:58:55.539Z,14.30
2018-08-30T02:01:23.164Z,14.30
2018-08-30T02:03:50.803Z,14.30
2018-08-30T02:06:18.406Z,14.30
2018-08-30T02:08:54.578Z,14.30
2018-08-30T02:11:23.022Z,14.30
2018-08-30T02:13:50.631Z,14.30
2018-08-30T02:16:18.856Z,14.30
2018-08-30T02:18:46.457Z,14.30
2018-08-30T02:21:14.085Z,14.30
2018-08-30T02:23:41.689Z,14.30
2018-08-30T02:26:09.327Z,14.30
2018-08-30T02:28:36.953Z,14.30
2018-08-30T02:31:04.714Z,14.30
2018-08-30T02:33:32.335Z,14.30
2018-08-30T02:35:59.936Z,14.40
2018-08-30T02:38:27.584Z,14.40
2018-08-30T02:40:55.206Z,14.40
2018-08-30T02:43:22.840Z,14.40
2018-08-30T02:45:50.428Z,14.40
2018-08-30T02:48:19.234Z,14.40
2018-08-30T02:50:46.837Z,14.40
2018-08-30T02:53:14.480Z,14.40
2018-08-30T02:55:42.078Z,14.40
2018-08-30T02:58:09.708Z,14.40
2018-08-30T03:00:37.349Z,14.40
2018-08-30T03:03:05.064Z,14.40
2018-08-30T03:05:32.700Z,14.50
2018-08-30T03:08:00.333Z,14.50
2018-08-30T03:10:28.012Z,14.50
2018-08-30T03:12:55.643Z,14.40
2018-08-30T03:15:23.286Z,14.40
2018-08-30T03:17:50.917Z,14.40
2018-08-30T03:20:18.535Z,14.40
2018-08-30T03:22:46.155Z,14.40
2018-08-30T03:25:13.847Z,14.40
2018-08-30T03:27:41.467Z,14.40
2018-08-30T03:30:09.215Z,14.40
2018-08-30T03:32:36.810Z,14.40
2018-08-30T03:35:04.454Z,14.40
2018-08-30T03:37:32.083Z,14.40
2018-08-30T03:39:59.743Z,14.40
2018-08-30T03:42:27.395Z,14.40
2018-08-30T03:44:55.005Z,14.50
2018-08-30T03:47:22.626Z,14.40
2018-08-30T03:49:50.318Z,14.30
2018-08-30T03:52:17.973Z,14.30
2018-08-30T03:54:45.615Z,14.30
2018-08-30T03:57:13.221Z,14.30
2018-08-30T03:59:40.928Z,14.30
2018-08-30T04:02:08.557Z,14.30
2018-08-30T04:04:36.232Z,14.30
2018-08-30T04:07:04.305Z,14.30
2018-08-30T04:09:31.937Z,14.30
2018-08-30T04:11:59.638Z,14.40
2018-08-30T04:14:27.284Z,14.30
2018-08-30T04:16:54.886Z,14.30
2018-08-30T04:19:22.544Z,14.40
2018-08-30T04:21:50.210Z,14.40
2018-08-30T04:24:17.839Z,14.40
2018-08-30T04:26:45.448Z,14.40
2018-08-30T04:29:13.052Z,14.30
2018-08-30T04:31:40.708Z,14.40
2018-08-30T04:34:08.344Z,14.40
2018-08-30T04:36:36.026Z,14.40
2018-08-30T04:39:05.132Z,14.40
2018-08-30T04:41:32.719Z,14.40
2018-08-30T04:44:00.360Z,14.40
2018-08-30T04:46:27.981Z,14.40
2018-08-30T04:48:55.691Z,14.40
2018-08-30T04:51:23.296Z,14.40
2018-08-30T04:53:50.930Z,14.40
2018-08-30T04:56:18.625Z,14.40
2018-08-30T04:58:46.283Z,14.40
2018-08-30T05:01:13.893Z,14.40
2018-08-30T05:03:41.579Z,14.40
2018-08-30T05:06:09.174Z,14.40
2018-08-30T05:08:36.796Z,14.40
2018-08-30T05:11:04.512Z,14.40
2018-08-30T05:13:32.164Z,14.40
2018-08-30T05:15:59.798Z,14.40
2018-08-30T05:18:27.498Z,14.50
2018-08-30T05:20:55.106Z,14.50
2018-08-30T05:23:22.736Z,14.50
2018-08-30T05:25:50.354Z,14.50
2018-08-30T05:28:17.971Z,14.50
2018-08-30T05:30:45.608Z,14.50
2018-08-30T05:33:13.200Z,14.50
2018-08-30T05:35:41.110Z,14.60
2018-08-30T05:38:08.669Z,14.60
2018-08-30T05:40:36.361Z,14.60
2018-08-30T05:43:04.111Z,14.60
2018-08-30T05:45:31.749Z,14.60
2018-08-30T05:47:59.381Z,14.70
2018-08-30T05:50:27.005Z,14.80
2018-08-30T05:52:54.606Z,14.80
2018-08-30T05:55:22.231Z,14.80
2018-08-30T05:57:49.948Z,14.90
2018-08-30T06:00:17.567Z,14.90
2018-08-30T06:02:45.202Z,14.90
2018-08-30T06:05:12.868Z,14.90
2018-08-30T06:07:40.562Z,15.00
2018-08-30T06:10:08.220Z,15.00
2018-08-30T06:12:35.855Z,15.00
2018-08-30T06:15:04.907Z,15.00
2018-08-30T06:17:32.548Z,15.10
2018-08-30T06:20:00.190Z,15.20
2018-08-30T06:22:27.882Z,15.20
2018-08-30T06:24:55.610Z,15.20
2018-08-30T06:27:23.222Z,15.20
2018-08-30T06:29:50.918Z,15.20
2018-08-30T06:32:18.846Z,15.30
2018-08-30T06:34:46.818Z,15.30
2018-08-30T06:37:14.686Z,15.30
2018-08-30T06:39:42.761Z,15.30
2018-08-30T06:42:10.711Z,15.30
2018-08-30T06:44:38.707Z,15.30
2018-08-30T06:47:06.581Z,15.40
2018-08-30T06:49:34.613Z,15.40
2018-08-30T06:52:02.794Z,15.60
2018-08-30T06:54:30.717Z,15.70
2018-08-30T06:56:58.716Z,15.80
2018-08-30T06:59:26.616Z,15.90
2018-08-30T07:01:55.454Z,15.90
2018-08-30T07:04:23.517Z,15.90
2018-08-30T07:06:51.463Z,15.90
2018-08-30T07:09:19.434Z,15.90
2018-08-30T07:11:47.404Z,16.00
2018-08-30T07:14:15.401Z,16.00
2018-08-30T07:16:43.397Z,16.00
2018-08-30T07:19:11.312Z,16.10
2018-08-30T07:21:39.257Z,16.10
2018-08-30T07:24:07.344Z,16.20
2018-08-30T07:26:35.237Z,16.20
2018-08-30T07:29:03.442Z,16.30
2018-08-30T07:31:31.334Z,16.40
2018-08-30T07:33:59.373Z,16.40
2018-08-30T07:36:27.761Z,16.60
2018-08-30T07:38:55.646Z,17.40
2018-08-30T07:41:23.501Z,18.30
2018-08-30T07:43:51.425Z,18.90
2018-08-30T07:46:19.535Z,19.40
2018-08-30T07:48:47.440Z,19.90
2018-08-30T07:51:15.371Z,20.00
2018-08-30T07:53:43.229Z,19.70
2018-08-30T07:56:11.273Z,19.90
2018-08-30T07:58:39.347Z,20.10
2018-08-30T08:01:07.247Z,20.00
2018-08-30T08:03:35.221Z,19.60
2018-08-30T08:06:03.137Z,19.50
2018-08-30T08:08:30.927Z,19.80
2018-08-30T08:10:59.012Z,20.50
2018-08-30T08:13:26.913Z,21.30
2018-08-30T08:15:58.843Z,21.50
2018-08-30T08:18:26.670Z,22.20
2018-08-30T08:20:54.663Z,22.20
2018-08-30T08:23:22.593Z,21.90
2018-08-30T08:25:50.473Z,22.10
2018-08-30T08:28:18.376Z,22.40
2018-08-30T08:30:46.946Z,22.70
2018-08-30T08:33:14.900Z,23.50
2018-08-30T08:35:43.898Z,24.00
2018-08-30T08:38:11.901Z,24.00
2018-08-30T08:40:39.932Z,23.40
2018-08-30T08:43:07.879Z,22.90
2018-08-30T08:45:35.788Z,23.70
2018-08-30T08:48:03.730Z,24.90
2018-08-30T08:50:31.796Z,25.50
2018-08-30T08:52:59.792Z,25.10
2018-08-30T08:55:27.797Z,23.90
2018-08-30T08:57:55.828Z,23.40
2018-08-30T09:00:23.715Z,22.70
2018-08-30T09:02:51.675Z,22.70
2018-08-30T09:05:19.751Z,23.90
2018-08-30T09:07:47.881Z,25.40
2018-08-30T09:10:15.903Z,26.10
2018-08-30T09:12:44.427Z,25.60
2018-08-30T09:15:12.290Z,25.70
2018-08-30T09:17:40.388Z,26.60
2018-08-30T09:20:08.652Z,26.90
2018-08-30T09:22:36.669Z,26.10
2018-08-30T09:25:04.714Z,25.60
2018-08-30T09:27:32.899Z,26.40
2018-08-30T09:30:00.903Z,27.40
2018-08-30T09:32:29.791Z,27.10
2018-08-30T09:34:57.785Z,25.70
2018-08-30T09:37:25.666Z,24.20
2018-08-30T09:39:53.521Z,23.30
2018-08-30T09:42:21.605Z,22.80
2018-08-30T09:44:49.648Z,23.70
2018-08-30T09:47:17.534Z,25.30
2018-08-30T09:49:45.347Z,28.10
2018-08-30T09:52:13.282Z,28.10
2018-08-30T09:54:41.185Z,28.20
2018-08-30T09:57:09.303Z,27.50
2018-08-30T09:59:37.154Z,25.70
2018-08-30T10:02:10.661Z,24.00
2018-08-30T10:04:38.832Z,22.90
2018-08-30T10:07:06.756Z,22.80
2018-08-30T10:09:34.704Z,24.10
2018-08-30T10:12:02.544Z,25.60
2018-08-30T10:14:30.490Z,25.60
2018-08-30T10:16:58.761Z,24.70
2018-08-30T10:19:26.770Z,23.70
2018-08-30T10:21:54.795Z,23.70
2018-08-30T10:24:22.592Z,24.00
2018-08-30T10:26:50.493Z,24.10
2018-08-30T10:29:18.368Z,23.80
2018-08-30T10:31:46.370Z,23.40
2018-08-30T10:34:14.317Z,22.90
2018-08-30T10:36:42.500Z,22.80
2018-08-30T10:39:10.449Z,22.90
2018-08-30T10:41:38.365Z,23.10
2018-08-30T10:44:06.493Z,24.10
2018-08-30T10:46:34.379Z,25.40
2018-08-30T10:49:02.464Z,26.20
2018-08-30T10:51:30.407Z,26.80
2018-08-30T10:53:58.440Z,27.30
2018-08-30T10:56:26.517Z,27.50
2018-08-30T10:58:54.526Z,26.40
2018-08-30T11:01:22.498Z,25.30
2018-08-30T11:03:51.298Z,24.50
2018-08-30T11:06:20.033Z,23.90
2018-08-30T11:08:48.004Z,23.40
2018-08-30T11:11:15.962Z,23.10
2018-08-30T11:13:43.974Z,23.00
2018-08-30T11:16:11.855Z,23.90
2018-08-30T11:18:39.763Z,25.20
2018-08-30T11:21:07.681Z,24.70
2018-08-30T11:23:35.673Z,24.00
2018-08-30T11:26:03.674Z,23.20
2018-08-30T11:28:31.679Z,22.70
2018-08-30T11:30:59.665Z,22.60
2018-08-30T11:33:27.882Z,22.60
2018-08-30T11:35:55.914Z,22.60
2018-08-30T11:38:23.881Z,23.00
2018-08-30T11:40:51.830Z,23.20
2018-08-30T11:43:19.978Z,23.20
2018-08-30T11:45:47.817Z,23.00
2018-08-30T11:48:16.030Z,22.60
2018-08-30T11:50:43.970Z,22.40
2018-08-30T11:53:12.002Z,22.40
2018-08-30T11:55:40.037Z,22.10
2018-08-30T11:58:08.226Z,21.90
2018-08-30T12:00:36.097Z,21.70
2018-08-30T12:03:04.212Z,21.80
2018-08-30T12:05:32.690Z,21.90
2018-08-30T12:08:00.798Z,21.60
2018-08-30T12:10:29.403Z,21.30
2018-08-30T12:12:57.849Z,21.20
2018-08-30T12:15:26.313Z,21.20
2018-08-30T12:17:55.526Z,21.50
2018-08-30T12:20:23.447Z,21.50
2018-08-30T12:22:51.317Z,21.50
2018-08-30T12:25:19.210Z,21.60
2018-08-30T12:27:47.282Z,21.60
2018-08-30T12:30:15.387Z,21.50
2018-08-30T12:32:43.413Z,21.60
2018-08-30T12:35:11.792Z,21.60
2018-08-30T12:37:39.635Z,21.60
2018-08-30T12:40:07.786Z,21.80
2018-08-30T12:42:35.631Z,22.10
2018-08-30T12:45:03.664Z,22.10
2018-08-30T12:47:31.635Z,22.10
2018-08-30T12:50:00.009Z,22.00
2018-08-30T12:52:27.744Z,22.10
2018-08-30T12:54:55.289Z,22.00
2018-08-30T12:57:22.998Z,21.60
2018-08-30T12:59:50.616Z,21.50
2018-08-30T13:02:18.425Z,21.30
2018-08-30T13:04:46.279Z,21.40
2018-08-30T13:07:13.871Z,21.40
2018-08-30T13:09:41.552Z,21.40
2018-08-30T13:12:09.341Z,21.50
2018-08-30T13:14:37.054Z,21.60
2018-08-30T13:17:04.639Z,21.30
2018-08-30T13:19:32.649Z,21.00
2018-08-30T13:22:00.224Z,20.70
2018-08-30T13:24:27.804Z,20.70
2018-08-30T13:26:55.410Z,20.80
2018-08-30T13:29:23.079Z,21.10
2018-08-30T13:31:50.953Z,21.50
2018-08-30T13:34:18.705Z,21.70
2018-08-30T13:36:46.274Z,21.90
2018-08-30T13:39:14.187Z,21.90
2018-08-30T13:41:42.189Z,22.00
2018-08-30T13:44:10.874Z,22.10
2018-08-30T13:46:38.961Z,22.30
2018-08-30T13:49:07.084Z,22.30
2018-08-30T13:51:34.636Z,22.30
2018-08-30T13:54:02.619Z,22.50
2018-08-30T13:56:30.044Z,22.50
2018-08-30T13:58:57.856Z,22.70
2018-08-30T14:01:25.515Z,22.70
2018-08-30T14:03:52.954Z,22.70
2018-08-30T14:06:20.661Z,22.70
2018-08-30T14:08:48.331Z,22.70
2018-08-30T14:11:16.101Z,22.80
2018-08-30T14:13:48.154Z,23.00
2018-08-30T14:16:15.319Z,23.10
2018-08-30T14:18:43.050Z,23.20
2018-08-30T14:21:11.397Z,23.30
2018-08-30T14:23:39.214Z,23.00
2018-08-30T14:26:06.884Z,22.90
2018-08-30T14:28:34.499Z,22.60
2018-08-30T14:31:02.182Z,22.40
2018-08-30T14:33:29.835Z,22.10
2018-08-30T14:35:57.502Z,21.90
2018-08-30T14:38:25.154Z,21.70
2018-08-30T14:40:52.934Z,21.60
2018-08-30T14:43:20.557Z,21.30
2018-08-30T14:45:48.157Z,21.20
2018-08-30T14:48:15.782Z,21.10
2018-08-30T14:50:44.245Z,21.20
2018-08-30T14:53:12.076Z,21.20
2018-08-30T14:55:39.523Z,21.10
2018-08-30T14:58:07.173Z,21.00
2018-08-30T15:00:34.805Z,21.00
2018-08-30T15:03:02.480Z,21.10
2018-08-30T15:05:30.460Z,21.20
2018-08-30T15:07:57.884Z,21.30
2018-08-30T15:10:25.573Z,21.20
2018-08-30T15:12:53.192Z,21.30
2018-08-30T15:15:20.941Z,21.30
2018-08-30T15:17:48.664Z,21.20
2018-08-30T15:20:16.222Z,21.20
2018-08-30T15:22:43.931Z,21.20
2018-08-30T15:25:11.537Z,21.20
2018-08-30T15:27:39.154Z,21.20
2018-08-30T15:30:06.968Z,21.30
2018-08-30T15:32:34.545Z,21.30
2018-08-30T15:35:02.165Z,21.30
2018-08-30T15:37:29.828Z,21.20
2018-08-30T15:39:57.460Z,21.20
2018-08-30T15:42:25.270Z,21.10
2018-08-30T15:44:52.830Z,21.10
2018-08-30T15:47:20.561Z,21.00
2018-08-30T15:49:48.174Z,21.00
2018-08-30T15:52:15.807Z,20.90
2018-08-30T15:54:43.475Z,20.80
2018-08-30T15:57:11.110Z,20.60
2018-08-30T15:59:38.850Z,20.40
2018-08-30T16:02:06.513Z,20.20
2018-08-30T16:04:34.443Z,20.00
2018-08-30T16:07:02.087Z,19.90
2018-08-30T16:09:29.748Z,19.80
2018-08-30T16:11:57.392Z,19.70
2018-08-30T16:14:25.238Z,19.60
2018-08-30T16:16:52.912Z,19.50
2018-08-30T16:19:20.547Z,19.30
2018-08-30T16:21:48.179Z,19.20
2018-08-30T16:24:15.841Z,19.20
2018-08-30T16:26:43.548Z,19.10
2018-08-30T16:29:11.358Z,19.20
2018-08-30T16:31:38.958Z,19.20
2018-08-30T16:34:06.649Z,19.30
2018-08-30T16:36:34.326Z,19.40
2018-08-30T16:39:02.077Z,19.40
2018-08-30T16:41:29.736Z,19.50
2018-08-30T16:43:57.396Z,19.50
2018-08-30T16:46:25.199Z,19.50
2018-08-30T16:48:52.935Z,19.50
2018-08-30T16:51:20.563Z,19.50
2018-08-30T16:53:48.211Z,19.50
2018-08-30T16:56:15.919Z,19.60
2018-08-30T16:58:43.497Z,19.70
2018-08-30T17:01:11.149Z,19.70
2018-08-30T17:03:38.793Z,19.80
2018-08-30T17:06:06.397Z,19.80
2018-08-30T17:08:34.107Z,19.70
2018-08-30T17:11:01.845Z,19.70
2018-08-30T17:13:29.417Z,19.60
2018-08-30T17:15:57.091Z,19.50
2018-08-30T17:18:24.828Z,19.40
2018-08-30T17:20:53.978Z,19.30
2018-08-30T17:23:21.745Z,19.20
2018-08-30T17:25:49.425Z,19.00
2018-08-30T17:28:17.149Z,18.90
2018-08-30T17:30:44.981Z,18.80
2018-08-30T17:33:12.591Z,18.70
2018-08-30T17:35:40.278Z,18.60
2018-08-30T17:38:07.964Z,18.50
2018-08-30T17:40:35.643Z,18.40
2018-08-30T17:43:03.363Z,18.40
2018-08-30T17:45:31.081Z,18.30
2018-08-30T17:47:58.689Z,18.20
2018-08-30T17:50:30.652Z,18.20
2018-08-30T17:52:58.258Z,18.10
2018-08-30T17:55:26.240Z,18.10
2018-08-30T17:57:53.914Z,18.00
2018-08-30T18:00:21.794Z,18.00
2018-08-30T18:02:49.448Z,18.00
2018-08-30T18:05:17.130Z,17.90
2018-08-30T18:07:45.053Z,17.80
2018-08-30T18:10:12.781Z,17.80
2018-08-30T18:12:40.668Z,17.70
2018-08-30T18:15:10.917Z,17.60
2018-08-30T18:17:39.174Z,17.60
2018-08-30T18:20:12.790Z,17.50
2018-08-30T18:22:40.428Z,17.50
2018-08-30T18:25:08.718Z,17.50
2018-08-30T18:27:36.441Z,17.50
2018-08-30T18:30:04.923Z,17.50
2018-08-30T18:32:32.609Z,17.40
2018-08-30T18:35:00.289Z,17.40
2018-08-30T18:37:27.940Z,17.40
2018-08-30T18:39:55.598Z,17.30
2018-08-30T18:42:23.301Z,17.20
2018-08-30T18:44:50.893Z,17.20
2018-08-30T18:47:18.533Z,17.20
2018-08-30T18:49:54.912Z,17.10
2018-08-30T18:52:23.806Z,17.10
2018-08-30T18:54:51.434Z,17.00
2018-08-30T18:57:20.084Z,16.90
2018-08-30T18:59:47.906Z,16.80
2018-08-30T19:02:15.589Z,16.70
2018-08-30T19:04:43.263Z,16.70
2018-08-30T19:07:10.987Z,16.70
2018-08-30T19:09:38.607Z,16.60
2018-08-30T19:12:06.724Z,16.60
2018-08-30T19:14:34.483Z,16.50
2018-08-30T19:17:07.694Z,16.50
2018-08-30T19:19:36.251Z,16.50
2018-08-30T19:22:04.185Z,16.50
2018-08-30T19:24:37.515Z,16.50
2018-08-30T19:27:05.332Z,16.60
2018-08-30T19:29:39.072Z,16.50
2018-08-30T19:32:07.941Z,16.50
2018-08-30T19:34:36.922Z,16.40
2018-08-30T19:37:05.361Z,16.40
2018-08-30T19:39:34.139Z,16.40
2018-08-30T19:42:02.338Z,16.30
2018-08-30T19:44:31.264Z,16.20
2018-08-30T19:47:00.169Z,16.20
2018-08-30T19:49:28.455Z,16.10
2018-08-30T19:51:56.728Z,16.00
2018-08-30T19:54:25.076Z,16.00
2018-08-30T19:56:53.237Z,15.90
2018-08-30T19:59:21.274Z,15.80
2018-08-30T20:01:49.635Z,15.80
2018-08-30T20:04:17.728Z,15.80
2018-08-30T20:06:45.773Z,15.70
2018-08-30T20:09:14.106Z,15.70
2018-08-30T20:11:42.185Z,15.70
2018-08-30T20:14:10.402Z,15.60
2018-08-30T20:16:38.777Z,15.60
2018-08-30T20:19:07.035Z,15.50
2018-08-30T20:21:35.180Z,15.50
2018-08-30T20:24:03.297Z,15.40
2018-08-30T20:26:31.487Z,15.30
2018-08-30T20:28:59.814Z,15.30
2018-08-30T20:31:29.028Z,15.20
2018-08-30T20:33:57.928Z,15.20
2018-08-30T20:36:27.038Z,15.20
2018-08-30T20:38:55.574Z,15.20
2018-08-30T20:41:23.747Z,15.10
2018-08-30T20:43:51.871Z,15.10
2018-08-30T20:46:20.358Z,15.10
2018-08-30T20:48:48.574Z,15.10
2018-08-30T20:51:17.035Z,15.10
2018-08-30T20:53:45.217Z,15.10
2018-08-30T20:56:13.468Z,15.10
2018-08-30T20:58:42.239Z,15.00
2018-08-30T21:01:10.812Z,15.00
2018-08-30T21:03:38.781Z,14.90
2018-08-30T21:06:06.908Z,14.80
2018-08-30T21:08:34.953Z,14.70
2018-08-30T21:11:03.060Z,14.70
2018-08-30T21:13:31.008Z,14.70
2018-08-30T21:15:59.184Z,14.70
2018-08-30T21:18:27.106Z,14.60
2018-08-30T21:20:55.622Z,14.60
2018-08-30T21:23:23.589Z,14.60
2018-08-30T21:25:51.551Z,14.60
2018-08-30T21:28:19.590Z,14.50
2018-08-30T21:30:47.661Z,14.50
2018-08-30T21:33:16.043Z,14.40
2018-08-30T21:35:44.149Z,14.40
2018-08-30T21:38:12.271Z,14.30
2018-08-30T21:40:40.152Z,14.30
2018-08-30T21:43:08.977Z,14.20
2018-08-30T21:45:36.885Z,14.20
2018-08-30T21:48:04.897Z,14.20
2018-08-30T21:50:32.892Z,14.10
2018-08-30T21:53:00.904Z,14.10
2018-08-30T21:55:29.043Z,14.00
2018-08-30T21:57:56.961Z,13.90
2018-08-30T22:00:25.774Z,13.80
2018-08-30T22:02:54.008Z,13.80
2018-08-30T22:05:21.865Z,13.80
2018-08-30T22:07:49.855Z,13.70
2018-08-30T22:10:18.842Z,13.60
2018-08-30T22:12:46.810Z,13.60
2018-08-30T22:15:14.797Z,13.50
2018-08-30T22:17:42.842Z,13.50
2018-08-30T22:20:12.915Z,13.40
2018-08-30T22:22:41.292Z,13.40
2018-08-30T22:25:09.936Z,13.30
2018-08-30T22:27:38.071Z,13.30
2018-08-30T22:30:09.705Z,13.20
2018-08-30T22:32:38.545Z,13.20
2018-08-30T22:35:07.454Z,13.10
2018-08-30T22:37:36.326Z,13.10
2018-08-30T22:40:05.168Z,13.00
2018-08-30T22:42:33.652Z,13.00
2018-08-30T22:45:02.662Z,13.00
2018-08-30T22:47:30.889Z,12.90
2018-08-30T22:49:59.390Z,12.80
2018-08-30T22:52:28.974Z,12.80
2018-08-30T22:54:57.468Z,12.80
2018-08-30T22:57:25.977Z,12.90
2018-08-30T22:59:54.237Z,12.80
2018-08-30T23:02:23.522Z,12.80
2018-08-30T23:04:52.004Z,12.80
2018-08-30T23:07:20.622Z,12.70
2018-08-30T23:09:48.856Z,12.70
2018-08-30T23:12:16.894Z,12.70
2018-08-30T23:14:44.965Z,12.60
2018-08-30T23:17:12.913Z,12.60
2018-08-30T23:19:41.043Z,12.60
2018-08-30T23:22:08.919Z,12.60
2018-08-30T23:24:41.270Z,12.60
2018-08-30T23:27:09.193Z,12.60
2018-08-30T23:29:37.242Z,12.60
2018-08-30T23:32:05.473Z,12.50
2018-08-30T23:34:33.560Z,12.50
2018-08-30T23:37:01.530Z,12.40
2018-08-30T23:39:29.663Z,12.40
2018-08-30T23:41:57.633Z,12.40
2018-08-30T23:44:25.563Z,12.40
2018-08-30T23:46:53.500Z,12.30
2018-08-30T23:49:21.471Z,12.30
2018-08-30T23:51:49.601Z,12.20
2018-08-30T23:54:17.524Z,12.10
2018-08-30T23:56:45.555Z,12.10
2018-08-30T23:59:24.930Z,12.00
